Time;durP1;ratioP1;P1;durP2;ratioP2;P2;SDS_P1;SDS_P2;PMS_P1;PMS_P2;Temp;Humidity;BMP_temperature;BMP_pressure;BME280_temperature;BME280_humidity;BME280_pressure;Samples;Min_cycle;Max_cycle;Signal;HPM_P1;HPM_P2
2022/09/03 00:00:28;;;;;;;3.60;1.70;;;;;;;;;;5020278;28;20056;-80
2022/09/03 00:02:58;;;;;;;3.95;2.00;;;;;;;;;;5019411;28;20279;-79
2022/09/03 00:05:40;;;;;;;4.68;2.20;;;;;;;;;;5018623;28;20053;-79
2022/09/03 00:08:23;;;;;;;6.05;2.22;;;;;;;;;;5018919;28;20058;-79
2022/09/03 00:10:52;;;;;;;5.90;2.17;;;;;;;;;;4999239;28;20132;-79
2022/09/03 00:13:22;;;;;;;3.38;1.95;;;;;;;;;;5016829;28;20678;-79
2022/09/03 00:15:52;;;;;;;4.13;2.00;;;;;;;;;;5017483;28;20053;-78
2022/09/03 00:18:20;;;;;;;7.75;2.10;;;;;;;;;;4999946;28;20045;-78
2022/09/03 00:20:53;;;;;;;4.53;2.17;;;;;;;;;;5002106;28;20104;-80
2022/09/03 00:23:24;;;;;;;4.38;2.20;;;;;;;;;;5019880;28;20088;-79
2022/09/03 00:26:09;;;;;;;4.03;2.20;;;;;;;;;;5017801;28;20528;-79
2022/09/03 00:28:39;;;;;;;5.00;2.33;;;;;;;;;;5000381;28;20061;-79
2022/09/03 00:31:20;;;;;;;4.00;2.17;;;;;;;;;;5018737;28;20050;-79
2022/09/03 00:33:48;;;;;;;3.78;2.25;;;;;;;;;;5019081;28;20310;-79
2022/09/03 00:36:18;;;;;;;7.13;2.13;;;;;;;;;;5018388;28;20046;-79
2022/09/03 00:38:44;;;;;;;5.03;1.90;;;;;;;;;;5018648;28;20045;-79
2022/09/03 00:41:20;;;;;;;3.10;1.90;;;;;;;;;;5017506;28;20080;-79
2022/09/03 00:43:57;;;;;;;6.07;1.77;;;;;;;;;;5016014;28;20069;-79
2022/09/03 00:46:28;;;;;;;3.03;1.90;;;;;;;;;;5000328;28;20046;-79
2022/09/03 00:48:57;;;;;;;5.20;1.90;;;;;;;;;;5017498;28;20050;-80
2022/09/03 00:51:33;;;;;;;5.50;2.20;;;;;;;;;;5017633;28;20124;-78
2022/09/03 00:54:18;;;;;;;4.50;2.15;;;;;;;;;;5018871;28;20065;-79
2022/09/03 00:56:58;;;;;;;3.80;1.85;;;;;;;;;;5018085;28;20132;-79
2022/09/03 00:59:34;;;;;;;4.68;2.40;;;;;;;;;;5017669;28;20312;-80
2022/09/03 01:02:04;;;;;;;2.58;1.88;;;;;;;;;;5018995;28;20050;-79
2022/09/03 01:04:50;;;;;;;3.20;1.75;;;;;;;;;;5015808;28;20145;-79
2022/09/03 01:07:22;;;;;;;4.03;1.53;;;;;;;;;;5000418;28;20351;-80
2022/09/03 01:09:53;;;;;;;3.95;1.85;;;;;;;;;;5017796;28;20050;-80
2022/09/03 01:12:29;;;;;;;6.63;1.90;;;;;;;;;;5019087;28;20874;-79
2022/09/03 01:15:19;;;;;;;3.15;1.60;;;;;;;;;;5020469;28;20050;-80
2022/09/03 01:17:48;;;;;;;3.22;1.90;;;;;;;;;;4994139;28;20049;-79
2022/09/03 01:20:14;;;;;;;4.72;1.90;;;;;;;;;;5001061;28;20088;-79
2022/09/03 01:23:00;;;;;;;5.10;1.88;;;;;;;;;;5019597;28;20338;-78
2022/09/03 01:25:30;;;;;;;4.20;1.92;;;;;;;;;;5019206;28;20081;-79
2022/09/03 01:28:00;;;;;;;2.70;1.70;;;;;;;;;;5001960;28;20832;-79
2022/09/03 01:30:30;;;;;;;5.05;1.83;;;;;;;;;;5019921;28;20414;-81
2022/09/03 01:33:08;;;;;;;2.92;1.75;;;;;;;;;;5019759;28;20097;-81
2022/09/03 01:35:40;;;;;;;3.00;1.77;;;;;;;;;;5018613;28;20073;-80
2022/09/03 01:38:25;;;;;;;2.78;1.67;;;;;;;;;;5019256;28;20153;-80
2022/09/03 01:42:12;;;;;;;5.18;1.70;;;;;;;;;;4999108;28;20115;-79
2022/09/03 01:44:06;;;;;;;5.65;1.67;;;;;;;;;;5016225;28;20050;-78
2022/09/03 01:46:37;;;;;;;3.42;1.75;;;;;;;;;;5001345;28;20596;-81
2022/09/03 01:49:04;;;;;;;2.33;1.33;;;;;;;;;;4997506;28;20054;-78
2022/09/03 01:51:31;;;;;;;3.50;1.67;;;;;;;;;;4994830;28;20493;-79
2022/09/03 01:54:12;;;;;;;4.85;1.80;;;;;;;;;;5001227;28;20046;-79
2022/09/03 01:56:59;;;;;;;3.53;1.88;;;;;;;;;;5000374;28;20104;-81
2022/09/03 01:59:36;;;;;;;7.18;1.60;;;;;;;;;;4997758;28;20054;-79
2022/09/03 02:02:18;;;;;;;3.30;1.50;;;;;;;;;;5007550;28;20137;-79
2022/09/03 02:05:02;;;;;;;4.35;1.83;;;;;;;;;;5013458;28;20541;-79
2022/09/03 02:07:33;;;;;;;3.85;1.83;;;;;;;;;;4996147;28;20137;-78
2022/09/03 02:10:00;;;;;;;3.28;1.73;;;;;;;;;;5014182;28;20073;-79
2022/09/03 02:12:31;;;;;;;4.18;1.80;;;;;;;;;;5017242;28;20084;-78
2022/09/03 02:15:02;;;;;;;6.10;1.88;;;;;;;;;;5016756;28;20070;-79
2022/09/03 02:17:30;;;;;;;3.65;1.55;;;;;;;;;;5015971;28;20069;-78
2022/09/03 02:19:57;;;;;;;6.40;2.08;;;;;;;;;;5015999;28;20068;-78
2022/09/03 02:22:24;;;;;;;3.58;1.48;;;;;;;;;;4998911;28;20053;-79
2022/09/03 02:24:51;;;;;;;3.80;1.42;;;;;;;;;;5018991;28;20084;-80
2022/09/03 02:27:18;;;;;;;4.97;1.90;;;;;;;;;;5020991;28;20073;-80
2022/09/03 02:29:45;;;;;;;4.78;1.73;;;;;;;;;;5019698;28;20084;-80
2022/09/03 02:32:13;;;;;;;3.72;1.85;;;;;;;;;;5021885;28;20077;-78
2022/09/03 02:34:41;;;;;;;2.78;1.67;;;;;;;;;;5021166;28;20073;-78
2022/09/03 02:37:14;;;;;;;3.13;1.80;;;;;;;;;;5017747;28;20050;-78
2022/09/03 02:39:40;;;;;;;5.10;2.00;;;;;;;;;;5013499;28;20477;-79
2022/09/03 02:42:09;;;;;;;3.50;1.80;;;;;;;;;;5011480;28;20142;-78
2022/09/03 02:44:37;;;;;;;4.85;1.73;;;;;;;;;;5016802;28;20049;-80
2022/09/03 02:47:05;;;;;;;3.13;1.52;;;;;;;;;;5018601;28;20441;-79
2022/09/03 02:49:33;;;;;;;5.10;1.98;;;;;;;;;;5018543;28;20057;-79
2022/09/03 02:52:04;;;;;;;3.28;1.67;;;;;;;;;;5020301;28;20054;-80
2022/09/03 02:54:32;;;;;;;4.90;1.85;;;;;;;;;;5002962;28;20069;-80
2022/09/03 02:56:58;;;;;;;8.68;2.17;;;;;;;;;;5019658;28;20076;-80
2022/09/03 02:59:27;;;;;;;2.05;1.40;;;;;;;;;;5003443;28;20061;-79
2022/09/03 03:01:54;;;;;;;6.75;1.73;;;;;;;;;;5021339;28;20532;-80
2022/09/03 03:04:20;;;;;;;5.28;1.50;;;;;;;;;;5003677;28;20053;-79
2022/09/03 03:06:49;;;;;;;3.33;1.70;;;;;;;;;;5020262;28;20050;-80
2022/09/03 03:09:16;;;;;;;5.38;1.63;;;;;;;;;;5020347;28;20056;-79
2022/09/03 03:11:43;;;;;;;5.63;1.75;;;;;;;;;;5021958;28;20045;-79
2022/09/03 03:14:10;;;;;;;3.17;1.50;;;;;;;;;;5020314;28;20056;-80
2022/09/03 03:16:36;;;;;;;4.30;1.52;;;;;;;;;;5021970;28;20453;-79
2022/09/03 03:19:02;;;;;;;6.75;2.03;;;;;;;;;;5021675;28;20053;-80
2022/09/03 03:21:29;;;;;;;4.72;1.80;;;;;;;;;;5021680;28;20058;-79
2022/09/03 03:23:56;;;;;;;3.13;1.60;;;;;;;;;;5024838;28;20049;-80
2022/09/03 03:26:23;;;;;;;3.40;1.80;;;;;;;;;;5031106;28;20050;-79
2022/09/03 03:28:50;;;;;;;3.55;1.50;;;;;;;;;;5030297;28;20062;-79
2022/09/03 03:31:17;;;;;;;3.17;1.98;;;;;;;;;;5023564;28;20077;-79
2022/09/03 03:33:47;;;;;;;5.72;1.98;;;;;;;;;;5021729;28;20046;-79
2022/09/03 03:36:14;;;;;;;6.78;1.90;;;;;;;;;;5003560;28;20077;-80
2022/09/03 03:38:41;;;;;;;3.85;1.85;;;;;;;;;;5020869;28;20049;-81
2022/09/03 03:41:10;;;;;;;4.63;1.80;;;;;;;;;;5004277;28;20129;-80
2022/09/03 03:43:36;;;;;;;5.22;1.77;;;;;;;;;;5021329;28;20111;-79
2022/09/03 03:46:04;;;;;;;3.15;1.90;;;;;;;;;;5019496;28;20050;-79
2022/09/03 03:48:31;;;;;;;5.53;1.92;;;;;;;;;;5018533;28;20077;-79
2022/09/03 03:51:03;;;;;;;4.63;1.88;;;;;;;;;;5019001;28;20522;-78
2022/09/03 03:53:29;;;;;;;8.48;2.17;;;;;;;;;;5016735;28;20046;-78
2022/09/03 03:55:57;;;;;;;5.10;1.80;;;;;;;;;;5018985;28;20161;-80
2022/09/03 03:58:23;;;;;;;6.47;1.90;;;;;;;;;;5019478;28;20066;-79
2022/09/03 04:00:50;;;;;;;2.95;1.65;;;;;;;;;;5018916;28;20117;-79
2022/09/03 04:03:18;;;;;;;5.68;2.22;;;;;;;;;;5018445;28;20065;-79
2022/09/03 04:05:58;;;;;;;4.75;1.92;;;;;;;;;;5017057;28;20042;-79
2022/09/03 04:08:24;;;;;;;5.15;1.45;;;;;;;;;;5018811;28;20046;-79
2022/09/03 04:10:51;;;;;;;3.60;1.75;;;;;;;;;;5019174;28;20053;-79
2022/09/03 04:13:17;;;;;;;5.43;2.10;;;;;;;;;;5019956;28;20074;-79
2022/09/03 04:15:44;;;;;;;4.10;1.70;;;;;;;;;;5003978;28;20182;-79
2022/09/03 04:18:11;;;;;;;5.18;2.08;;;;;;;;;;5021853;28;20091;-79
2022/09/03 04:20:37;;;;;;;3.35;1.80;;;;;;;;;;5020357;28;20072;-79
2022/09/03 04:23:04;;;;;;;4.03;1.88;;;;;;;;;;5021593;28;20112;-79
2022/09/03 04:25:31;;;;;;;3.17;1.85;;;;;;;;;;5019553;28;20368;-79
2022/09/03 04:27:57;;;;;;;4.70;1.80;;;;;;;;;;5020456;28;20053;-79
2022/09/03 04:30:24;;;;;;;4.88;1.85;;;;;;;;;;5020264;28;20084;-79
2022/09/03 04:32:53;;;;;;;5.03;1.85;;;;;;;;;;5020383;28;20577;-79
2022/09/03 04:35:24;;;;;;;6.60;1.90;;;;;;;;;;5002758;28;20057;-79
2022/09/03 04:37:52;;;;;;;7.05;1.90;;;;;;;;;;5019333;28;20156;-79
2022/09/03 04:40:18;;;;;;;2.97;1.80;;;;;;;;;;5019449;28;20049;-79
2022/09/03 04:42:45;;;;;;;7.13;1.90;;;;;;;;;;5019772;28;20054;-78
2022/09/03 04:45:17;;;;;;;4.53;2.20;;;;;;;;;;5016060;28;20117;-79
2022/09/03 04:47:54;;;;;;;5.57;2.20;;;;;;;;;;5018146;28;20057;-78
2022/09/03 04:50:22;;;;;;;7.55;2.30;;;;;;;;;;5014173;28;20523;-79
2022/09/03 04:52:48;;;;;;;3.60;2.10;;;;;;;;;;5014576;28;20478;-78
2022/09/03 04:55:15;;;;;;;2.85;1.80;;;;;;;;;;5015339;28;20124;-79
2022/09/03 04:57:43;;;;;;;5.88;1.88;;;;;;;;;;5001115;28;20192;-79
2022/09/03 05:00:10;;;;;;;6.28;1.98;;;;;;;;;;5019432;28;20145;-78
2022/09/03 05:02:37;;;;;;;5.03;2.20;;;;;;;;;;5020220;28;20164;-79
2022/09/03 05:05:03;;;;;;;4.68;1.83;;;;;;;;;;5005579;28;20137;-79
2022/09/03 05:07:37;;;;;;;7.50;1.98;;;;;;;;;;5016861;28;20177;-77
2022/09/03 05:10:07;;;;;;;7.05;1.83;;;;;;;;;;5018598;28;20506;-78
2022/09/03 05:12:34;;;;;;;3.35;2.13;;;;;;;;;;5020173;28;20129;-79
2022/09/03 05:15:04;;;;;;;4.47;1.85;;;;;;;;;;5024860;28;20409;-79
2022/09/03 05:17:30;;;;;;;5.53;2.05;;;;;;;;;;5025076;28;20103;-81
2022/09/03 05:20:02;;;;;;;7.97;2.42;;;;;;;;;;5005034;28;20041;-79
2022/09/03 05:22:28;;;;;;;5.53;2.08;;;;;;;;;;5022719;28;20050;-79
2022/09/03 05:24:55;;;;;;;5.45;2.20;;;;;;;;;;5018721;28;20050;-77
2022/09/03 05:27:21;;;;;;;5.57;2.40;;;;;;;;;;5019546;28;20135;-79
2022/09/03 05:29:48;;;;;;;5.35;2.03;;;;;;;;;;5018018;28;20105;-80
2022/09/03 05:32:16;;;;;;;8.18;2.40;;;;;;;;;;5011935;28;20042;-78
2022/09/03 05:34:42;;;;;;;4.75;2.22;;;;;;;;;;5012624;28;20100;-78
2022/09/03 05:37:10;;;;;;;6.57;2.30;;;;;;;;;;5011974;28;20156;-78
2022/09/03 05:39:37;;;;;;;7.50;2.22;;;;;;;;;;4994967;28;20046;-78
2022/09/03 05:42:03;;;;;;;3.08;1.73;;;;;;;;;;5019412;28;20052;-78
2022/09/03 05:44:31;;;;;;;4.30;1.80;;;;;;;;;;5031001;28;20301;-79
2022/09/03 05:46:58;;;;;;;4.88;1.80;;;;;;;;;;5017237;28;20096;-77
2022/09/03 05:49:25;;;;;;;4.32;2.25;;;;;;;;;;5008607;28;20084;-77
2022/09/03 05:51:51;;;;;;;4.20;1.67;;;;;;;;;;5014713;28;20141;-78
2022/09/03 05:54:20;;;;;;;7.65;2.15;;;;;;;;;;5012937;28;20082;-78
2022/09/03 05:56:47;;;;;;;4.00;1.92;;;;;;;;;;5013448;28;20577;-78
2022/09/03 05:59:13;;;;;;;3.75;1.80;;;;;;;;;;5011874;28;20137;-78
2022/09/03 06:01:41;;;;;;;6.00;1.70;;;;;;;;;;4995222;28;20188;-78
2022/09/03 06:04:16;;;;;;;3.45;1.80;;;;;;;;;;5006868;28;20723;-78
2022/09/03 06:06:44;;;;;;;3.13;1.70;;;;;;;;;;5013406;28;20050;-78
2022/09/03 06:09:12;;;;;;;4.55;1.80;;;;;;;;;;4997722;28;20081;-79
2022/09/03 06:11:39;;;;;;;3.35;1.67;;;;;;;;;;4997562;28;20054;-78
2022/09/03 06:14:07;;;;;;;6.38;1.95;;;;;;;;;;5012885;28;20065;-78
2022/09/03 06:16:35;;;;;;;5.63;1.70;;;;;;;;;;4996417;28;20073;-78
2022/09/03 06:19:02;;;;;;;6.80;1.60;;;;;;;;;;5010568;28;20054;-77
2022/09/03 06:21:28;;;;;;;3.65;1.55;;;;;;;;;;5013985;28;20054;-78
2022/09/03 06:23:56;;;;;;;3.53;1.65;;;;;;;;;;5012422;28;20061;-78
2022/09/03 06:26:27;;;;;;;5.13;1.52;;;;;;;;;;5011624;28;20410;-77
2022/09/03 06:28:53;;;;;;;5.22;1.85;;;;;;;;;;5010510;28;20564;-77
2022/09/03 06:31:21;;;;;;;7.10;1.70;;;;;;;;;;5013920;28;20092;-79
2022/09/03 06:33:47;;;;;;;4.65;1.60;;;;;;;;;;5018869;28;20054;-79
2022/09/03 06:36:15;;;;;;;3.90;1.80;;;;;;;;;;5018388;28;20053;-79
2022/09/03 06:38:42;;;;;;;6.63;1.33;;;;;;;;;;5018568;28;20208;-79
2022/09/03 06:41:10;;;;;;;4.43;1.38;;;;;;;;;;5019203;28;20084;-79
2022/09/03 06:43:37;;;;;;;2.65;1.30;;;;;;;;;;4998529;28;20073;-79
2022/09/03 06:46:06;;;;;;;3.38;1.30;;;;;;;;;;5021047;28;20058;-80
2022/09/03 06:48:39;;;;;;;2.22;1.23;;;;;;;;;;5014255;28;20429;-78
2022/09/03 06:51:10;;;;;;;4.72;1.70;;;;;;;;;;4998677;28;20117;-79
2022/09/03 06:53:37;;;;;;;2.85;1.40;;;;;;;;;;5002279;28;20438;-79
2022/09/03 06:56:05;;;;;;;4.15;1.60;;;;;;;;;;5020108;28;20042;-79
2022/09/03 06:58:37;;;;;;;5.18;1.20;;;;;;;;;;5020266;28;20050;-79
2022/09/03 07:01:07;;;;;;;3.83;1.30;;;;;;;;;;5002954;28;20049;-79
2022/09/03 07:03:34;;;;;;;5.63;1.98;;;;;;;;;;4999337;28;20105;-79
2022/09/03 07:06:02;;;;;;;3.92;1.50;;;;;;;;;;5017900;28;20049;-79
2022/09/03 07:08:29;;;;;;;2.15;1.10;;;;;;;;;;5011859;28;20093;-78
2022/09/03 07:10:55;;;;;;;6.72;1.45;;;;;;;;;;4995492;28;20045;-79
2022/09/03 07:13:22;;;;;;;3.58;1.30;;;;;;;;;;5013257;28;20077;-79
2022/09/03 07:15:56;;;;;;;3.58;1.25;;;;;;;;;;5030052;28;20054;-78
2022/09/03 07:18:23;;;;;;;5.03;1.20;;;;;;;;;;5026969;28;20049;-78
2022/09/03 07:20:49;;;;;;;5.97;1.55;;;;;;;;;;5025881;28;20163;-79
2022/09/03 07:23:16;;;;;;;7.20;1.30;;;;;;;;;;5015372;28;20140;-79
2022/09/03 07:25:42;;;;;;;4.90;1.10;;;;;;;;;;5017019;28;20053;-78
2022/09/03 07:28:08;;;;;;;2.88;1.38;;;;;;;;;;5016214;28;20057;-78
2022/09/03 07:30:35;;;;;;;3.70;1.23;;;;;;;;;;5014345;28;20038;-80
2022/09/03 07:33:03;;;;;;;2.63;1.35;;;;;;;;;;4999027;28;20048;-79
2022/09/03 07:35:29;;;;;;;7.40;1.38;;;;;;;;;;4998156;28;20418;-78
2022/09/03 07:37:56;;;;;;;6.65;1.30;;;;;;;;;;4998619;28;20050;-78
2022/09/03 07:40:22;;;;;;;6.80;1.65;;;;;;;;;;4991560;28;20062;-80
2022/09/03 07:42:50;;;;;;;6.15;1.40;;;;;;;;;;5002482;28;20532;-77
2022/09/03 07:45:20;;;;;;;9.27;1.45;;;;;;;;;;5013224;28;20109;-77
2022/09/03 07:47:48;;;;;;;2.35;1.20;;;;;;;;;;5010928;28;20067;-80
2022/09/03 07:50:15;;;;;;;4.45;1.30;;;;;;;;;;5016244;28;20050;-80
2022/09/03 07:52:41;;;;;;;3.10;1.42;;;;;;;;;;5016174;28;20441;-79
2022/09/03 07:55:08;;;;;;;5.65;1.50;;;;;;;;;;5017774;28;20060;-78
2022/09/03 07:57:34;;;;;;;4.53;1.30;;;;;;;;;;5029042;28;20041;-79
2022/09/03 08:00:05;;;;;;;4.53;1.50;;;;;;;;;;5027850;28;20074;-78
2022/09/03 08:02:32;;;;;;;3.10;1.30;;;;;;;;;;5021848;28;20060;-81
2022/09/03 08:04:59;;;;;;;6.30;1.23;;;;;;;;;;5017267;28;20053;-78
2022/09/03 08:07:28;;;;;;;2.97;1.10;;;;;;;;;;4994927;28;20050;-80
2022/09/03 08:09:54;;;;;;;2.72;1.20;;;;;;;;;;5016056;28;20573;-79
2022/09/03 08:12:21;;;;;;;7.55;1.45;;;;;;;;;;4995964;28;20104;-79
2022/09/03 08:14:47;;;;;;;5.35;1.35;;;;;;;;;;4999343;28;20061;-78
2022/09/03 08:17:14;;;;;;;3.00;1.20;;;;;;;;;;5018380;28;20077;-79
2022/09/03 08:19:42;;;;;;;3.90;1.40;;;;;;;;;;5006870;28;20046;-79
2022/09/03 08:22:09;;;;;;;3.15;1.02;;;;;;;;;;5016658;28;20283;-78
2022/09/03 08:24:35;;;;;;;6.03;1.27;;;;;;;;;;5016007;28;20046;-79
2022/09/03 08:27:02;;;;;;;6.05;1.30;;;;;;;;;;4999499;28;20080;-79
2022/09/03 08:29:28;;;;;;;3.13;1.17;;;;;;;;;;5012145;28;20457;-78
2022/09/03 08:31:55;;;;;;;4.95;1.20;;;;;;;;;;4995679;28;20313;-78
2022/09/03 08:34:22;;;;;;;2.78;1.23;;;;;;;;;;4995523;28;20054;-79
2022/09/03 08:36:49;;;;;;;4.88;1.45;;;;;;;;;;5014907;28;20170;-79
2022/09/03 08:39:15;;;;;;;2.85;1.08;;;;;;;;;;5015585;28;20058;-80
2022/09/03 08:41:42;;;;;;;3.50;1.25;;;;;;;;;;4997220;28;20518;-79
2022/09/03 08:44:27;;;;;;;3.80;1.50;;;;;;;;;;5019753;28;20054;-80
2022/09/03 08:46:59;;;;;;;1.77;1.02;;;;;;;;;;5016603;28;20192;-79
2022/09/03 08:49:55;;;;;;;5.30;1.20;;;;;;;;;;5011989;28;20086;-78
2022/09/03 08:52:28;;;;;;;8.52;1.50;;;;;;;;;;4997446;28;20057;-78
2022/09/03 08:55:12;;;;;;;4.85;1.80;;;;;;;;;;4987535;28;20049;-78
2022/09/03 08:57:42;;;;;;;6.72;1.55;;;;;;;;;;5015014;28;20546;-78
2022/09/03 09:00:08;;;;;;;10.07;1.50;;;;;;;;;;5011260;28;20081;-77
2022/09/03 09:02:55;;;;;;;2.88;1.10;;;;;;;;;;4998694;28;20080;-81
2022/09/03 09:05:45;;;;;;;10.13;1.67;;;;;;;;;;5007684;28;20084;-79
2022/09/03 09:08:11;;;;;;;8.10;1.40;;;;;;;;;;4987104;28;20134;-80
2022/09/03 09:10:44;;;;;;;4.22;1.30;;;;;;;;;;4980227;28;20137;-80
2022/09/03 09:13:26;;;;;;;4.28;1.60;;;;;;;;;;4984826;28;20137;-79
2022/09/03 09:16:07;;;;;;;4.22;1.13;;;;;;;;;;5018343;28;20229;-79
2022/09/03 09:18:34;;;;;;;4.32;1.50;;;;;;;;;;5017445;28;20046;-80
2022/09/03 09:21:16;;;;;;;3.20;1.20;;;;;;;;;;4996687;28;20062;-78
2022/09/03 09:23:48;;;;;;;2.90;1.23;;;;;;;;;;4998520;28;20089;-79
2022/09/03 09:26:20;;;;;;;3.13;1.50;;;;;;;;;;5012033;28;20081;-77
2022/09/03 09:28:51;;;;;;;3.17;1.35;;;;;;;;;;5017002;28;20074;-79
2022/09/03 09:31:17;;;;;;;4.88;1.30;;;;;;;;;;5016104;28;20088;-80
2022/09/03 09:33:45;;;;;;;5.25;1.40;;;;;;;;;;4999197;28;20058;-78
2022/09/03 09:36:15;;;;;;;3.20;1.30;;;;;;;;;;5016271;28;20510;-80
2022/09/03 09:38:45;;;;;;;9.25;1.40;;;;;;;;;;5018490;28;20505;-80
2022/09/03 09:41:13;;;;;;;8.93;1.40;;;;;;;;;;5019663;28;20077;-77
2022/09/03 09:43:39;;;;;;;5.50;1.38;;;;;;;;;;5017798;28;20042;-79
2022/09/03 09:46:26;;;;;;;5.97;1.23;;;;;;;;;;5001928;28;20042;-78
2022/09/03 09:48:56;;;;;;;7.03;1.55;;;;;;;;;;5014916;28;20565;-80
2022/09/03 09:51:31;;;;;;;5.95;1.52;;;;;;;;;;5016896;28;20129;-78
2022/09/03 09:54:12;;;;;;;9.38;1.55;;;;;;;;;;5017672;28;20434;-78
2022/09/03 09:56:39;;;;;;;2.38;1.30;;;;;;;;;;5020005;28;20042;-80
2022/09/03 09:59:06;;;;;;;6.15;1.48;;;;;;;;;;5019649;28;20057;-80
2022/09/03 10:01:35;;;;;;;6.30;1.30;;;;;;;;;;5020264;28;20038;-80
2022/09/03 10:04:13;;;;;;;6.53;1.60;;;;;;;;;;5019644;28;20073;-80
2022/09/03 10:06:58;;;;;;;5.03;1.40;;;;;;;;;;5007227;28;20081;-79
2022/09/03 10:09:26;;;;;;;4.47;1.58;;;;;;;;;;5022542;28;20080;-78
2022/09/03 10:12:01;;;;;;;3.60;1.23;;;;;;;;;;5027065;28;20109;-80
2022/09/03 10:14:35;;;;;;;6.15;1.60;;;;;;;;;;5021656;28;20076;-80
2022/09/03 10:17:31;;;;;;;4.65;1.42;;;;;;;;;;5022370;28;20045;-79
2022/09/03 10:22:55;;;;;;;3.38;1.13;;;;;;;;;;5017550;28;20411;-80
2022/09/03 10:25:25;;;;;;;4.30;1.35;;;;;;;;;;5018654;28;20434;-80
2022/09/03 10:27:53;;;;;;;3.83;1.52;;;;;;;;;;5015658;28;20057;-79
2022/09/03 10:30:19;;;;;;;1.75;1.20;;;;;;;;;;5015255;28;20054;-80
2022/09/03 10:33:09;;;;;;;5.38;1.27;;;;;;;;;;5015520;28;20444;-78
2022/09/03 10:35:51;;;;;;;4.38;1.40;;;;;;;;;;4998517;28;20351;-80
2022/09/03 10:38:28;;;;;;;8.98;1.33;;;;;;;;;;4998501;28;20395;-79
2022/09/03 10:41:28;;;;;;;2.15;1.27;;;;;;;;;;5007669;28;20045;-78
2022/09/03 10:44:01;;;;;;;3.35;1.65;;;;;;;;;;4987098;28;20085;-79
2022/09/03 10:46:34;;;;;;;6.88;1.50;;;;;;;;;;5010524;28;20481;-80
2022/09/03 10:49:08;;;;;;;2.90;1.30;;;;;;;;;;5015181;28;20085;-80
2022/09/03 10:51:36;;;;;;;2.83;1.27;;;;;;;;;;5022513;28;20057;-82
2022/09/03 10:54:25;;;;;;;3.13;1.40;;;;;;;;;;5022682;28;20042;-82
2022/09/03 10:57:07;;;;;;;2.83;1.33;;;;;;;;;;5018053;28;20069;-83
2022/09/03 10:59:46;;;;;;;2.50;1.25;;;;;;;;;;5034243;28;20037;-84
2022/09/03 11:02:20;;;;;;;4.68;1.40;;;;;;;;;;5036167;28;20042;-85
2022/09/03 11:05:06;;;;;;;3.50;1.20;;;;;;;;;;5028426;28;20041;-85
2022/09/03 11:07:44;;;;;;;3.75;1.20;;;;;;;;;;5020598;28;20050;-83
2022/09/03 11:10:10;;;;;;;2.67;1.30;;;;;;;;;;5000509;28;20069;-81
2022/09/03 11:12:43;;;;;;;5.63;1.40;;;;;;;;;;5001809;28;20045;-85
2022/09/03 11:15:19;;;;;;;4.07;1.30;;;;;;;;;;5001373;28;20145;-81
2022/09/03 11:17:51;;;;;;;4.72;1.25;;;;;;;;;;5023136;28;20045;-81
2022/09/03 11:20:22;;;;;;;2.58;1.10;;;;;;;;;;5021901;28;20057;-83
2022/09/03 11:22:50;;;;;;;2.90;1.30;;;;;;;;;;5021394;28;20078;-82
2022/09/03 11:25:19;;;;;;;2.95;1.00;;;;;;;;;;5023005;28;20104;-82
2022/09/03 11:27:53;;;;;;;2.33;1.25;;;;;;;;;;5023576;28;20054;-81
2022/09/03 11:30:32;;;;;;;1.92;1.20;;;;;;;;;;5004244;28;20077;-82
2022/09/03 11:33:05;;;;;;;4.20;1.40;;;;;;;;;;5003773;28;20033;-81
2022/09/03 11:35:32;;;;;;;2.22;1.27;;;;;;;;;;5024529;28;20080;-82
2022/09/03 11:38:19;;;;;;;2.38;1.20;;;;;;;;;;5024945;28;20101;-84
2022/09/03 11:40:59;;;;;;;6.57;1.30;;;;;;;;;;5023873;28;20069;-84
2022/09/03 11:43:30;;;;;;;2.65;1.00;;;;;;;;;;5024119;28;20044;-82
2022/09/03 11:46:25;;;;;;;3.78;1.20;;;;;;;;;;5007656;28;20076;-81
2022/09/03 11:48:56;;;;;;;2.92;1.20;;;;;;;;;;5012717;28;20100;-81
2022/09/03 11:51:29;;;;;;;3.92;1.30;;;;;;;;;;4995169;28;20502;-82
2022/09/03 11:53:57;;;;;;;2.75;1.00;;;;;;;;;;5015143;28;20058;-78
2022/09/03 11:56:24;;;;;;;3.63;1.25;;;;;;;;;;5014041;28;20069;-80
2022/09/03 11:59:03;;;;;;;3.88;1.20;;;;;;;;;;4996457;28;20080;-77
2022/09/03 12:01:30;;;;;;;2.97;1.15;;;;;;;;;;4998028;28;20121;-79
2022/09/03 12:04:02;;;;;;;2.78;1.20;;;;;;;;;;5015514;28;20050;-80
2022/09/03 12:06:40;;;;;;;2.45;1.10;;;;;;;;;;5016465;28;20049;-81
2022/09/03 12:09:15;;;;;;;4.40;1.38;;;;;;;;;;5014355;28;20077;-81
2022/09/03 12:11:55;;;;;;;2.08;1.27;;;;;;;;;;5017775;28;20128;-79
2022/09/03 12:14:34;;;;;;;2.58;1.20;;;;;;;;;;5021007;28;20069;-83
2022/09/03 12:17:13;;;;;;;2.90;1.40;;;;;;;;;;5034911;28;20057;-85
2022/09/03 12:19:51;;;;;;;5.07;1.40;;;;;;;;;;5024135;28;20111;-80
2022/09/03 12:22:19;;;;;;;2.38;1.17;;;;;;;;;;5004190;28;20058;-80
2022/09/03 12:24:46;;;;;;;3.15;1.67;;;;;;;;;;5021163;28;20149;-79
2022/09/03 12:27:23;;;;;;;5.05;1.38;;;;;;;;;;5003851;28;20050;-80
2022/09/03 12:29:58;;;;;;;2.55;1.42;;;;;;;;;;5019513;28;20104;-80
2022/09/03 12:32:28;;;;;;;3.72;1.30;;;;;;;;;;4999130;28;20130;-80
2022/09/03 12:34:55;;;;;;;4.22;1.30;;;;;;;;;;5020742;28;20118;-81
2022/09/03 12:37:23;;;;;;;2.45;1.40;;;;;;;;;;5021724;28;20056;-81
2022/09/03 12:40:18;;;;;;;2.75;1.20;;;;;;;;;;5021201;28;20062;-81
2022/09/03 12:42:44;;;;;;;2.60;1.48;;;;;;;;;;5021289;28;20092;-83
2022/09/03 12:45:14;;;;;;;2.70;1.30;;;;;;;;;;5007781;28;20058;-81
2022/09/03 12:47:42;;;;;;;4.93;1.20;;;;;;;;;;5007780;28;20065;-84
2022/09/03 12:50:15;;;;;;;4.97;1.50;;;;;;;;;;5024738;28;20422;-83
2022/09/03 12:52:47;;;;;;;2.05;1.30;;;;;;;;;;5007804;28;20109;-83
2022/09/03 12:55:24;;;;;;;3.60;1.30;;;;;;;;;;5006780;28;20054;-83
2022/09/03 12:58:25;;;;;;;4.03;1.50;;;;;;;;;;5025516;28;20068;-84
2022/09/03 13:00:58;;;;;;;2.30;1.33;;;;;;;;;;4995838;28;20076;-83
2022/09/03 13:03:31;;;;;;;3.08;1.48;;;;;;;;;;5024918;28;20046;-83
2022/09/03 13:06:00;;;;;;;1.85;1.10;;;;;;;;;;5008455;28;20042;-81
2022/09/03 13:08:28;;;;;;;3.80;1.40;;;;;;;;;;5008959;28;20545;-83
2022/09/03 13:10:59;;;;;;;3.33;1.33;;;;;;;;;;5006898;28;20042;-84
2022/09/03 13:13:30;;;;;;;3.45;1.45;;;;;;;;;;5029394;28;20061;-82
2022/09/03 13:16:16;;;;;;;8.13;1.75;;;;;;;;;;5013209;28;20057;-82
2022/09/03 13:18:52;;;;;;;3.60;1.33;;;;;;;;;;5029278;28;20060;-83
2022/09/03 13:21:39;;;;;;;2.33;1.40;;;;;;;;;;5009765;28;20131;-81
2022/09/03 13:24:09;;;;;;;5.15;1.42;;;;;;;;;;5027448;28;20073;-84
2022/09/03 13:26:55;;;;;;;2.08;1.58;;;;;;;;;;5027779;28;20050;-83
2022/09/03 13:29:34;;;;;;;3.47;1.88;;;;;;;;;;5009587;28;20069;-82
2022/09/03 13:32:09;;;;;;;2.28;1.30;;;;;;;;;;5027178;28;20158;-83
2022/09/03 13:34:52;;;;;;;5.68;1.50;;;;;;;;;;5026976;28;20054;-83
2022/09/03 13:37:24;;;;;;;4.15;1.50;;;;;;;;;;5025526;28;20046;-82
2022/09/03 13:39:53;;;;;;;4.72;1.48;;;;;;;;;;5025463;28;20112;-79
2022/09/03 13:42:46;;;;;;;4.32;1.27;;;;;;;;;;5021767;28;20157;-81
2022/09/03 13:45:30;;;;;;;2.85;1.70;;;;;;;;;;4997941;28;20073;-81
2022/09/03 13:51:07;;;;;;;1.85;1.10;;;;;;;;;;5025452;28;20046;-83
2022/09/03 13:54:00;;;;;;;3.65;1.45;;;;;;;;;;5025338;28;20427;-82
2022/09/03 13:56:45;;;;;;;5.22;1.30;;;;;;;;;;5008601;28;20073;-81
2022/09/03 13:59:28;;;;;;;5.10;1.45;;;;;;;;;;5025692;28;20151;-81
2022/09/03 14:02:08;;;;;;;3.42;1.30;;;;;;;;;;5001885;28;20046;-81
2022/09/03 14:04:54;;;;;;;3.30;1.48;;;;;;;;;;5000901;28;20120;-81
2022/09/03 14:07:25;;;;;;;4.55;1.30;;;;;;;;;;5016560;28;20064;-82
2022/09/03 14:10:15;;;;;;;5.07;1.60;;;;;;;;;;5015528;28;20117;-80
2022/09/03 14:12:48;;;;;;;5.68;1.40;;;;;;;;;;5018454;28;20050;-81
2022/09/03 14:15:17;;;;;;;4.00;1.38;;;;;;;;;;5018659;28;20065;-82
2022/09/03 14:18:02;;;;;;;3.80;1.30;;;;;;;;;;5035083;28;20092;-84
2022/09/03 14:20:32;;;;;;;5.18;1.33;;;;;;;;;;5026338;28;20050;-82
2022/09/03 14:23:06;;;;;;;3.80;1.40;;;;;;;;;;5023483;28;20052;-80
2022/09/03 14:25:33;;;;;;;3.15;1.20;;;;;;;;;;5022179;28;20100;-81
2022/09/03 14:28:13;;;;;;;2.08;1.30;;;;;;;;;;5020104;28;20099;-80
2022/09/03 14:30:42;;;;;;;2.85;1.30;;;;;;;;;;5000521;28;20078;-79
2022/09/03 14:33:13;;;;;;;6.18;1.33;;;;;;;;;;5020262;28;20073;-79
2022/09/03 14:36:01;;;;;;;1.85;1.13;;;;;;;;;;5035874;28;20046;-84
2022/09/03 14:38:28;;;;;;;3.05;1.20;;;;;;;;;;5036061;28;20053;-80
2022/09/03 14:41:00;;;;;;;5.45;1.40;;;;;;;;;;5030321;28;20462;-82
2022/09/03 14:43:30;;;;;;;3.58;1.02;;;;;;;;;;5026986;28;20053;-80
2022/09/03 14:45:59;;;;;;;6.00;1.48;;;;;;;;;;5012392;28;20070;-81
2022/09/03 14:49:06;;;;;;;5.57;1.08;;;;;;;;;;5006639;28;20086;-83
2022/09/03 14:51:36;;;;;;;4.25;1.40;;;;;;;;;;5002093;28;20046;-81
2022/09/03 14:54:08;;;;;;;1.83;0.95;;;;;;;;;;5024457;28;20050;-80
2022/09/03 14:56:43;;;;;;;3.30;1.40;;;;;;;;;;5026850;28;20050;-81
2022/09/03 14:59:21;;;;;;;4.03;1.23;;;;;;;;;;5026245;28;20058;-81
2022/09/03 15:02:03;;;;;;;3.75;1.10;;;;;;;;;;5026850;28;20054;-84
2022/09/03 15:04:50;;;;;;;5.75;1.10;;;;;;;;;;5027483;28;20054;-83
2022/09/03 15:07:29;;;;;;;4.18;1.15;;;;;;;;;;5025858;28;20061;-82
2022/09/03 15:10:01;;;;;;;2.97;1.50;;;;;;;;;;5025526;28;20065;-81
2022/09/03 15:12:32;;;;;;;2.58;1.23;;;;;;;;;;5023269;28;20514;-81
2022/09/03 15:15:02;;;;;;;2.13;1.10;;;;;;;;;;5006187;28;20494;-83
2022/09/03 15:17:47;;;;;;;3.67;1.30;;;;;;;;;;5025534;28;20073;-83